logo
Rechercher aéroport 
image banner adimage banner adimage banner ad
image banner ad

SHCI - San Cristobal

Situé à Zapallar, Chile

ICAO - SHCI, IATA -

Données fournies par Airmate  

Information générale

Coordonnées: S32°34'45" W71°27'18"
Élévation : 98 feet MSL.
 
Voir autres Aéroports à Valparaíso

Données opérationnelles

Special qualification required
Heure actuelle UTC:
Heure actuelle locale:
Météo à : SCVM - Vina Del Mar ( 41 km )
METAR: SCVM 231700Z 30010KT 260V350 CAVOK 25/13 Q1016
Voir NOTAMs / SUP AIP / TFR affectant cet aéroport [VIEW]
Fréquences de communication: [VIEW]

Pistes:

Coordonnées de l'aéroport

Adresse: Zapallar Chile

Vue satellite de SHCI